Nearby METAR Reports


KANE - Minneapls/Blaine, Minnesota, USA
Distance from station: ESE 8mi, 13km
Updated: 05/24/2019 6:15am
Light drizzle, Mostly cloudy
Light drizzle, Mostly cloudy
 Wind from E
Wind: E 6 mph , 9 km/h
Temperature: 54°F , 12°C
Dew Point: 52°F , 11°C
Humidity: 94%
Barometer: 30.01 inHg , 1016.3 hPa
Summary: Light Drizzle
Clouds: Mostly cloudy
Visibility: 10 miles , 16 km
Cloud details: Partly cloudy 3100 ft
Mostly cloudy 6000 ft
2019/05/24 11:15 KANE 241115Z AUTO 09005KT 10SM -DZ SCT031 BKN060 12/11 A3001 RMK AO2
KMIC - Mnpls/Crystal, Minnesota, USA
Distance from station: S 8mi, 14km
Updated: 05/24/2019 6:19am
Mostly cloudy
Mostly cloudy
 Wind from E
Wind: E 6 mph , 9 km/h
Temperature: 52°F , 11°C
Dew Point: 50°F , 10°C
Humidity: 94%
Barometer: 30.00 inHg , 1015.9 hPa
Clouds: Mostly cloudy
Visibility: 10 miles , 16 km
Cloud details: Mostly cloudy 2500 ft
Mostly cloudy 5500 ft
Mostly cloudy 10000 ft
2019/05/24 11:19 KMIC 241119Z AUTO 10005KT 10SM BKN025 BKN055 BKN100 11/10 A3000 RMK AO2 RAB1058E10 P0000 T01110100
 
KMSP - Minneapolis, Minnesota, USA
Distance from station: SSE 22mi, 35km
Updated: 05/24/2019 5:53am
Overcast
Overcast
 Wind from SE
Wind: SE 9 mph , 15 km/h
Temperature: 52°F , 11°C
Dew Point: 48°F , 9°C
Humidity: 88%
Barometer: 30.01 inHg , 1016.3 hPa
Clouds: Overcast
Visibility: 10 miles , 16 km
Cloud details: Partly cloudy 6000 ft
Partly cloudy 7500 ft
Overcast 11000 ft
2019/05/24 10:53 KMSP 241053Z 14008KT 10SM SCT060 SCT075 OVC110 11/09 A3001 RMK AO2 SLP163 T01110094
KSTP - St. Paul, Minnesota, USA
Distance from station: SE 23mi, 38km
Updated: 05/24/2019 6:06am
Mostly cloudy
Mostly cloudy
 Wind from SE
Wind: SE 6 mph , 9 km/h
Temperature: 54°F , 12°C
Dew Point: 48°F , 9°C
Humidity: 82%
Barometer: 30.02 inHg , 1016.6 hPa
Clouds: Mostly cloudy
Visibility: 10 miles , 16 km
Cloud details: Mostly cloudy 2800 ft
Mostly cloudy 6000 ft
2019/05/24 11:06 KSTP 241106Z 13005KT 10SM BKN028 BKN060 12/09 A3002 RMK AO2 T01170089
 
KCFE - Buffalo Muni, Minnesota, USA
Distance from station: W 24mi, 38km
Updated: 05/24/2019 6:15am
Light rain, Overcast
Light rain, Overcast
 
Temperature: 50°F , 10°C
Dew Point: 48°F , 9°C
Humidity: 94%
Barometer: 30.00 inHg , 1015.9 hPa
Summary: Light rain
Clouds: Overcast
Visibility: 10 miles , 16 km
Cloud details: Partly cloudy 2200 ft
Mostly cloudy 3100 ft
Overcast 11000 ft
2019/05/24 11:15 KCFE 241115Z 10SM -RA SCT022 BKN031 OVC110 10/09 A3000 RMK AO2 T01030085
KFCM - Mnpls/Flying Cld, Minnesota, USA
Distance from station: S 25mi, 40km
Updated: 05/24/2019 5:53am
Partly cloudy
Partly cloudy
 Wind from ESE
Wind: ESE 12 mph , 19 km/h
Temperature: 52°F , 11°C
Dew Point: 48°F , 9°C
Humidity: 88%
Barometer: 29.99 inHg , 1015.6 hPa
Clouds: Partly cloudy
Visibility: 10 miles , 16 km
Cloud details: Partly cloudy 11000 ft
2019/05/24 10:53 KFCM 241053Z 12010KT 10SM SCT110 11/09 A2999 RMK AO2 RAB15E46 SLP159 P0000 T01110089
 
KCBG - Cambridge Muni, Minnesota, USA
Distance from station: N 27mi, 43km
Updated: 05/24/2019 6:15am
Overcast
Overcast
 Wind from E
Wind: E 6 mph , 9 km/h
Temperature: 54°F , 12°C
Dew Point: 45°F , 7°C
Humidity: 72%
Barometer: 30.02 inHg , 1016.6 hPa
Clouds: Overcast
Visibility: 10 miles , 16 km
Cloud details: Mostly cloudy 8000 ft
Overcast 9500 ft
2019/05/24 11:15 KCBG 241115Z AUTO 09005KT 10SM BKN080 OVC095 12/07 A3002 RMK AO2
KPNM - Princeton Muni, Minnesota, USA
Distance from station: NNW 27mi, 44km
Updated: 05/24/2019 6:15am
Overcast
Overcast
 Wind from E
Wind: E 6 mph , 9 km/h
Temperature: 54°F , 12°C
Dew Point: 48°F , 9°C
Humidity: 82%
Barometer: 30.02 inHg , 1016.6 hPa
Clouds: Overcast
Visibility: 10 miles , 16 km
Cloud details: Partly cloudy 4100 ft
Overcast 7500 ft
2019/05/24 11:15 KPNM 241115Z AUTO 09005KT 10SM SCT041 OVC075 12/09 A3002 RMK AO2
 
K21D - Lake Elmo, Minnesota, USA
Distance from station: ESE 28mi, 46km
Updated: 05/24/2019 6:16am
Light rain
Light rain
 Wind from E
Wind: E 5 mph , 7 km/h
Temperature: 52°F , 11°C
Dew Point: 50°F , 10°C
Humidity: 94%
Barometer: 30.03 inHg , 1016.9 hPa
Summary: Light rain
Visibility: 10 miles , 16 km
2019/05/24 11:16 K21D 241116Z AUTO 10004KT 10SM -RA 11/10 A3003 RMK AO2
KSGS - South St Paul, Minnesota, USA
Distance from station: SE 28mi, 46km
Updated: 05/24/2019 6:15am
Mostly cloudy
Mostly cloudy
 Wind from SE
Wind: SE 3 mph , 6 km/h
Temperature: 54°F , 12°C
Dew Point: 50°F , 10°C
Humidity: 88%
Barometer: 30.01 inHg , 1016.3 hPa
Clouds: Mostly cloudy
Visibility: 10 miles , 16 km
Cloud details: Mostly cloudy 6000 ft
2019/05/24 11:15 KSGS 241115Z AUTO 14003KT 10SM BKN060 12/10 A3001 RMK AO2 T01150097
 
KMGG - Maple Lake, Minnesota, USA
Distance from station: W 30mi, 48km
Updated: 05/24/2019 6:15am
Drizzle, Overcast
Drizzle, Overcast
 Wind from calm
Wind: Calm
Temperature: 52°F , 11°C
Dew Point: 50°F , 10°C
Humidity: 94%
Barometer: 30.00 inHg , 1015.9 hPa
Summary: Drizzle
Clouds: Overcast
Visibility: 10 miles , 16 km
Cloud details: Overcast 2200 ft
2019/05/24 11:15 KMGG 241115Z AUTO 00000KT 10SM DZ OVC022 11/10 A3000 RMK AO2 T01080097
KOEO - Osceola, Wisconsin, USA
Distance from station: ENE 34mi, 55km
Updated: 05/24/2019 6:15am
Overcast
Overcast
 Wind from E
Wind: E 8 mph , 13 km/h
Temperature: 52°F , 11°C
Dew Point: 48°F , 9°C
Humidity: 88%
Barometer: 30.06 inHg , 1017.9 hPa
Clouds: Overcast
Visibility: 10 miles , 16 km
Cloud details: Partly cloudy 3100 ft
Partly cloudy 7000 ft
Overcast 8000 ft
2019/05/24 11:15 KOEO 241115Z AUTO 10007KT 10SM SCT031 SCT070 OVC080 11/09 A3006 RMK AO2 T01130088
 
KLVN - Mnpls/Airlake, Minnesota, USA
Distance from station: S 39mi, 63km
Updated: 05/24/2019 6:16am
Light drizzle, Mostly cloudy
Light drizzle, Mostly cloudy
 Wind from E
Wind: E 9 mph , 15 km/h
Temperature: 52°F , 11°C
Dew Point: 52°F , 11°C
Humidity: 100%
Barometer: 30.00 inHg , 1015.9 hPa
Summary: Light Drizzle
Clouds: Mostly cloudy
Visibility: 7 miles , 11 km
Cloud details: Partly cloudy 1600 ft
Mostly cloudy 2900 ft
Mostly cloudy 4900 ft
2019/05/24 11:16 KLVN 241116Z AUTO 10008KT 7SM -DZ SCT016 BKN029 BKN049 11/11 A3000 RMK AO2
KRNH - New Richmond Mun, Wisconsin, USA
Distance from station: E 41mi, 66km
Updated: 05/24/2019 6:15am
Overcast
Overcast
 Wind from ESE
Wind: ESE 5 mph , 7 km/h
Temperature: 50°F , 10°C
Wind Chill: 48°F , 9°C
Dew Point: 46°F , 8°C
Humidity: 88%
Barometer: 30.04 inHg , 1017.3 hPa
Clouds: Overcast
Visibility: 10 miles , 16 km
Cloud details: Overcast 11000 ft
2019/05/24 11:15 KRNH 241115Z AUTO 11004KT 10SM OVC110 10/08 A3004 RMK AO2 T01030083
 
KROS - Rush City, Minnesota, USA
Distance from station: NNE 41mi, 66km
Updated: 05/24/2019 6:15am
Mostly cloudy
Mostly cloudy
 Wind from E
Wind: E 5 mph , 7 km/h
Temperature: 50°F , 10°C
Wind Chill: 48°F , 9°C
Dew Point: 46°F , 8°C
Humidity: 88%
Barometer: 30.04 inHg , 1017.3 hPa
Clouds: Mostly cloudy
Visibility: 10 miles , 16 km
Cloud details: Mostly cloudy 10000 ft
2019/05/24 11:15 KROS 241115Z AUTO 08004KT 10SM BKN100 10/08 A3004 RMK AO2 T01020080
KSTC - St. Cloud, Minnesota, USA
Distance from station: NW 41mi, 67km
Updated: 05/24/2019 6:07am
Overcast
Overcast
 Wind from E
Wind: E 5 mph , 7 km/h
Temperature: 50°F , 10°C
Wind Chill: 48°F , 9°C
Dew Point: 46°F , 8°C
Humidity: 88%
Barometer: 30.00 inHg , 1015.9 hPa
Clouds: Overcast
Visibility: 10 miles , 16 km
Cloud details: Mostly cloudy 2800 ft
Mostly cloudy 3500 ft
Overcast 7000 ft
2019/05/24 11:07 KSTC 241107Z AUTO 10004KT 10SM BKN028 BKN035 OVC070 10/08 A3000 RMK AO2 T01000083
 
KGYL - Glencoe, Minnesota, USA
Distance from station: SW 46mi, 74km
Updated: 05/24/2019 6:15am
Overcast
Overcast
 Wind from E
Wind: E 10 mph , 17 km/h
Temperature: 52°F , 11°C
Dew Point: 52°F , 11°C
Humidity: 100%
Barometer: 29.97 inHg , 1014.9 hPa
Clouds: Overcast
Visibility: 7 miles , 11 km
Cloud details: Partly cloudy 600 ft
Mostly cloudy 4800 ft
Overcast 5000 ft
2019/05/24 11:15 KGYL 241115Z AUTO 09009KT 7SM SCT006 BKN048 OVC050 11/11 A2997 RMK AO2 T01090110
KJMR - Mora, Minnesota, USA
Distance from station: N 48mi, 78km
Updated: 05/24/2019 6:16am
Overcast
Overcast
 Wind from E
Wind: E 7 mph , 11 km/h
Temperature: 50°F , 10°C
Wind Chill: 47°F , 8°C
Dew Point: 46°F , 8°C
Humidity: 88%
Barometer: 30.04 inHg , 1017.3 hPa
Clouds: Overcast
Visibility: 10 miles , 16 km
Cloud details: Overcast 4400 ft
2019/05/24 11:16 KJMR 241116Z AUTO 09006KT 10SM OVC044 10/08 A3004 RMK AO2